sensor_id;sensor_type;location;lat;lon;timestamp;pressure;altitude;pressure_sealevel;temperature;humidity
71109;BME280;59614;51.012;-1.648;2022-12-10T00:01:29;100127.19;;;-2.64;100.00
71109;BME280;59614;51.012;-1.648;2022-12-10T00:03:55;100127.06;;;-2.67;100.00
71109;BME280;59614;51.012;-1.648;2022-12-10T00:06:24;100116.34;;;-2.79;100.00
71109;BME280;59614;51.012;-1.648;2022-12-10T00:08:50;100114.50;;;-2.83;100.00
71109;BME280;59614;51.012;-1.648;2022-12-10T00:11:18;100134.53;;;-2.76;100.00
71109;BME280;59614;51.012;-1.648;2022-12-10T00:13:44;100128.53;;;-2.75;100.00
71109;BME280;59614;51.012;-1.648;2022-12-10T00:16:13;100127.63;;;-2.75;100.00
71109;BME280;59614;51.012;-1.648;2022-12-10T00:18:39;100124.34;;;-2.71;100.00
71109;BME280;59614;51.012;-1.648;2022-12-10T00:21:06;100120.78;;;-2.75;100.00
71109;BME280;59614;51.012;-1.648;2022-12-10T00:23:33;100121.75;;;-2.71;100.00
71109;BME280;59614;51.012;-1.648;2022-12-10T00:26:07;100122.81;;;-2.66;100.00
71109;BME280;59614;51.012;-1.648;2022-12-10T00:28:33;100128.72;;;-2.69;100.00
71109;BME280;59614;51.012;-1.648;2022-12-10T00:31:07;100126.06;;;-2.72;100.00
71109;BME280;59614;51.012;-1.648;2022-12-10T00:33:34;100126.66;;;-2.79;100.00
71109;BME280;59614;51.012;-1.648;2022-12-10T00:36:04;100127.59;;;-2.77;100.00
71109;BME280;59614;51.012;-1.648;2022-12-10T00:38:30;100131.94;;;-2.76;100.00
71109;BME280;59614;51.012;-1.648;2022-12-10T00:40:56;100128.97;;;-2.88;100.00
71109;BME280;59614;51.012;-1.648;2022-12-10T00:43:22;100119.44;;;-2.89;100.00
71109;BME280;59614;51.012;-1.648;2022-12-10T00:45:47;100121.22;;;-2.88;100.00
71109;BME280;59614;51.012;-1.648;2022-12-10T00:48:13;100128.13;;;-2.87;100.00
71109;BME280;59614;51.012;-1.648;2022-12-10T00:50:38;100125.66;;;-2.84;100.00
71109;BME280;59614;51.012;-1.648;2022-12-10T00:53:04;100124.88;;;-2.82;100.00
71109;BME280;59614;51.012;-1.648;2022-12-10T00:55:29;100127.72;;;-2.74;100.00
71109;BME280;59614;51.012;-1.648;2022-12-10T00:57:55;100129.53;;;-2.70;100.00
71109;BME280;59614;51.012;-1.648;2022-12-10T01:00:20;100132.81;;;-2.75;100.00
71109;BME280;59614;51.012;-1.648;2022-12-10T01:02:45;100125.56;;;-2.87;100.00
71109;BME280;59614;51.012;-1.648;2022-12-10T01:05:11;100122.19;;;-2.85;100.00
71109;BME280;59614;51.012;-1.648;2022-12-10T01:07:37;100131.66;;;-2.85;100.00
71109;BME280;59614;51.012;-1.648;2022-12-10T01:10:03;100132.50;;;-2.85;100.00
71109;BME280;59614;51.012;-1.648;2022-12-10T01:12:28;100137.00;;;-2.79;100.00
71109;BME280;59614;51.012;-1.648;2022-12-10T01:14:54;100137.81;;;-2.80;100.00
71109;BME280;59614;51.012;-1.648;2022-12-10T01:17:19;100129.22;;;-2.81;100.00
71109;BME280;59614;51.012;-1.648;2022-12-10T01:19:47;100126.47;;;-2.85;100.00
71109;BME280;59614;51.012;-1.648;2022-12-10T01:22:12;100135.84;;;-2.89;100.00
71109;BME280;59614;51.012;-1.648;2022-12-10T01:24:38;100126.25;;;-2.91;100.00
71109;BME280;59614;51.012;-1.648;2022-12-10T01:27:03;100134.00;;;-2.91;100.00
71109;BME280;59614;51.012;-1.648;2022-12-10T01:29:29;100128.03;;;-2.90;100.00
71109;BME280;59614;51.012;-1.648;2022-12-10T01:31:56;100122.19;;;-2.85;100.00
71109;BME280;59614;51.012;-1.648;2022-12-10T01:34:22;100128.25;;;-2.84;100.00
71109;BME280;59614;51.012;-1.648;2022-12-10T01:36:51;100126.47;;;-2.85;100.00
71109;BME280;59614;51.012;-1.648;2022-12-10T01:39:19;100129.84;;;-2.88;100.00
71109;BME280;59614;51.012;-1.648;2022-12-10T01:41:56;100139.97;;;-2.94;100.00
71109;BME280;59614;51.012;-1.648;2022-12-10T01:46:52;100144.81;;;-3.03;100.00
71109;BME280;59614;51.012;-1.648;2022-12-10T01:49:21;100149.81;;;-3.08;100.00
71109;BME280;59614;51.012;-1.648;2022-12-10T01:51:50;100147.25;;;-3.08;100.00
71109;BME280;59614;51.012;-1.648;2022-12-10T01:54:25;100150.03;;;-3.02;100.00
71109;BME280;59614;51.012;-1.648;2022-12-10T01:56:58;100144.03;;;-3.01;100.00
71109;BME280;59614;51.012;-1.648;2022-12-10T01:59:24;100144.03;;;-3.01;100.00
71109;BME280;59614;51.012;-1.648;2022-12-10T02:02:16;100147.50;;;-3.00;100.00
71109;BME280;59614;51.012;-1.648;2022-12-10T02:16:00;100144.16;;;-2.98;100.00
71109;BME280;59614;51.012;-1.648;2022-12-10T02:18:32;100147.56;;;-2.99;100.00
71109;BME280;59614;51.012;-1.648;2022-12-10T02:21:05;100148.50;;;-2.97;100.00
71109;BME280;59614;51.012;-1.648;2022-12-10T02:23:38;100141.69;;;-2.95;100.00
71109;BME280;59614;51.012;-1.648;2022-12-10T02:26:13;100135.69;;;-2.93;100.00
71109;BME280;59614;51.012;-1.648;2022-12-10T02:31:15;100144.25;;;-2.95;100.00
71109;BME280;59614;51.012;-1.648;2022-12-10T02:33:47;100147.56;;;-2.99;100.00
71109;BME280;59614;51.012;-1.648;2022-12-10T02:36:14;100155.09;;;-3.05;100.00
71109;BME280;59614;51.012;-1.648;2022-12-10T02:38:40;100151.50;;;-3.08;100.00
71109;BME280;59614;51.012;-1.648;2022-12-10T02:41:13;100164.41;;;-3.08;100.00
71109;BME280;59614;51.012;-1.648;2022-12-10T02:43:43;100154.16;;;-3.07;100.00
71109;BME280;59614;51.012;-1.648;2022-12-10T02:46:09;100153.22;;;-3.09;100.00
71109;BME280;59614;51.012;-1.648;2022-12-10T02:48:35;100146.41;;;-3.07;100.00
71109;BME280;59614;51.012;-1.648;2022-12-10T02:51:01;100150.03;;;-3.02;100.00
71109;BME280;59614;51.012;-1.648;2022-12-10T02:53:26;100144.16;;;-2.98;100.00
71109;BME280;59614;51.012;-1.648;2022-12-10T02:56:24;100145.91;;;-2.97;100.00
71109;BME280;59614;51.012;-1.648;2022-12-10T03:04:27;100149.28;;;-2.99;100.00
71109;BME280;59614;51.012;-1.648;2022-12-10T03:07:03;100141.16;;;-3.10;100.00
71109;BME280;59614;51.012;-1.648;2022-12-10T03:09:48;100136.75;;;-3.13;100.00
71109;BME280;59614;51.012;-1.648;2022-12-10T03:12:25;100135.16;;;-3.09;100.00
71109;BME280;59614;51.012;-1.648;2022-12-10T03:14:58;100140.09;;;-3.15;100.00
71109;BME280;59614;51.012;-1.648;2022-12-10T03:17:26;100146.28;;;-3.12;100.00
71109;BME280;59614;51.012;-1.648;2022-12-10T03:19:52;100136.81;;;-3.11;100.00
71109;BME280;59614;51.012;-1.648;2022-12-10T03:22:19;100141.25;;;-3.07;100.00
71109;BME280;59614;51.012;-1.648;2022-12-10T03:24:46;100144.09;;;-2.99;100.00
71109;BME280;59614;51.012;-1.648;2022-12-10T03:27:13;100142.56;;;-2.92;100.00
71109;BME280;59614;51.012;-1.648;2022-12-10T03:29:49;100138.47;;;-2.87;100.00
71109;BME280;59614;51.012;-1.648;2022-12-10T03:32:16;100137.59;;;-2.88;100.00
71109;BME280;59614;51.012;-1.648;2022-12-10T03:34:43;100139.41;;;-2.85;100.00
71109;BME280;59614;51.012;-1.648;2022-12-10T03:37:10;100141.91;;;-2.87;100.00
71109;BME280;59614;51.012;-1.648;2022-12-10T03:39:36;100148.38;;;-3.00;100.00
71109;BME280;59614;51.012;-1.648;2022-12-10T03:42:04;100142.25;;;-3.03;100.00
71109;BME280;59614;51.012;-1.648;2022-12-10T03:44:33;100137.94;;;-3.03;100.00
71109;BME280;59614;51.012;-1.648;2022-12-10T03:46:59;100139.44;;;-3.10;100.00
71109;BME280;59614;51.012;-1.648;2022-12-10T03:49:25;100134.44;;;-3.05;100.00
71109;BME280;59614;51.012;-1.648;2022-12-10T03:51:51;100137.75;;;-3.09;100.00
71109;BME280;59614;51.012;-1.648;2022-12-10T03:54:16;100143.72;;;-3.10;100.00
71109;BME280;59614;51.012;-1.648;2022-12-10T03:56:42;100146.19;;;-3.13;100.00
71109;BME280;59614;51.012;-1.648;2022-12-10T03:59:07;100139.28;;;-3.14;100.00
71109;BME280;59614;51.012;-1.648;2022-12-10T04:01:32;100140.00;;;-3.18;100.00
71109;BME280;59614;51.012;-1.648;2022-12-10T04:03:58;100146.00;;;-3.19;100.00
71109;BME280;59614;51.012;-1.648;2022-12-10T04:06:23;100143.38;;;-3.21;100.00
71109;BME280;59614;51.012;-1.648;2022-12-10T04:08:49;100125.34;;;-3.19;100.00
71109;BME280;59614;51.012;-1.648;2022-12-10T04:11:15;100128.09;;;-3.15;100.00
71109;BME280;59614;51.012;-1.648;2022-12-10T04:13:41;100124.59;;;-3.15;100.00
71109;BME280;59614;51.012;-1.648;2022-12-10T04:16:27;100128.13;;;-3.13;100.00
71109;BME280;59614;51.012;-1.648;2022-12-10T04:18:56;100135.88;;;-3.13;100.00
71109;BME280;59614;51.012;-1.648;2022-12-10T04:21:22;100131.59;;;-3.13;100.00
71109;BME280;59614;51.012;-1.648;2022-12-10T04:24:08;100142.59;;;-3.18;100.00
71109;BME280;59614;51.012;-1.648;2022-12-10T04:26:53;100138.13;;;-3.22;100.00
71109;BME280;59614;51.012;-1.648;2022-12-10T04:29:21;100137.78;;;-3.33;100.00
71109;BME280;59614;51.012;-1.648;2022-12-10T04:31:47;100139.69;;;-3.28;100.00
71109;BME280;59614;51.012;-1.648;2022-12-10T04:34:12;100139.69;;;-3.28;100.00
71109;BME280;59614;51.012;-1.648;2022-12-10T04:36:38;100133.72;;;-3.27;100.00
71109;BME280;59614;51.012;-1.648;2022-12-10T04:39:03;100139.59;;;-3.31;100.00
71109;BME280;59614;51.012;-1.648;2022-12-10T04:41:29;100142.03;;;-3.34;100.00
71109;BME280;59614;51.012;-1.648;2022-12-10T04:43:54;100140.41;;;-3.32;100.00
71109;BME280;59614;51.012;-1.648;2022-12-10T04:46:20;100136.75;;;-3.37;100.00
71109;BME280;59614;51.012;-1.648;2022-12-10T04:48:45;100140.13;;;-3.39;100.00
71109;BME280;59614;51.012;-1.648;2022-12-10T04:51:11;100143.38;;;-3.45;100.00
71109;BME280;59614;51.012;-1.648;2022-12-10T04:53:36;100133.94;;;-3.45;100.00
71109;BME280;59614;51.012;-1.648;2022-12-10T04:56:02;100137.63;;;-3.38;100.00
71109;BME280;59614;51.012;-1.648;2022-12-10T04:58:30;100128.94;;;-3.40;100.00
71109;BME280;59614;51.012;-1.648;2022-12-10T05:01:07;100131.59;;;-3.37;100.00
71109;BME280;59614;51.012;-1.648;2022-12-10T05:03:33;100114.16;;;-3.44;100.00
71109;BME280;59614;51.012;-1.648;2022-12-10T05:06:09;100135.19;;;-3.33;100.00
71109;BME280;59614;51.012;-1.648;2022-12-10T05:08:36;100123.97;;;-3.34;100.00
71109;BME280;59614;51.012;-1.648;2022-12-10T05:11:13;100132.63;;;-3.33;100.00
71109;BME280;59614;51.012;-1.648;2022-12-10T05:13:39;100121.50;;;-3.31;100.00
71109;BME280;59614;51.012;-1.648;2022-12-10T05:16:07;100109.97;;;-3.41;100.00
71109;BME280;59614;51.012;-1.648;2022-12-10T05:18:33;100111.84;;;-3.36;100.00
71109;BME280;59614;51.012;-1.648;2022-12-10T05:20:59;100112.72;;;-3.36;100.00
71109;BME280;59614;51.012;-1.648;2022-12-10T05:23:25;100117.78;;;-3.39;100.00
71109;BME280;59614;51.012;-1.648;2022-12-10T05:26:08;100123.03;;;-3.36;100.00
71109;BME280;59614;51.012;-1.648;2022-12-10T05:28:56;100121.50;;;-3.31;100.00
71109;BME280;59614;51.012;-1.648;2022-12-10T05:31:24;100127.50;;;-3.32;99.90
71109;BME280;59614;51.012;-1.648;2022-12-10T05:33:49;100129.66;;;-3.44;100.00
71109;BME280;59614;51.012;-1.648;2022-12-10T05:36:17;100122.13;;;-3.38;100.00
71109;BME280;59614;51.012;-1.648;2022-12-10T05:38:44;100127.53;;;-3.30;100.00
71109;BME280;59614;51.012;-1.648;2022-12-10T05:41:18;100111.97;;;-3.33;100.00
71109;BME280;59614;51.012;-1.648;2022-12-10T05:43:44;100112.84;;;-3.33;100.00
71109;BME280;59614;51.012;-1.648;2022-12-10T05:46:14;100117.28;;;-3.29;100.00
71109;BME280;59614;51.012;-1.648;2022-12-10T05:48:39;100120.06;;;-3.22;100.00
71109;BME280;59614;51.012;-1.648;2022-12-10T05:51:07;100121.72;;;-3.24;100.00
71109;BME280;59614;51.012;-1.648;2022-12-10T05:53:32;100116.84;;;-3.15;100.00
71109;BME280;59614;51.012;-1.648;2022-12-10T05:56:18;100121.28;;;-3.13;100.00
71109;BME280;59614;51.012;-1.648;2022-12-10T05:58:46;100123.75;;;-3.16;100.00
71109;BME280;59614;51.012;-1.648;2022-12-10T06:01:17;100119.25;;;-3.21;100.00
71109;BME280;59614;51.012;-1.648;2022-12-10T06:03:43;100123.47;;;-3.23;100.00
71109;BME280;59614;51.012;-1.648;2022-12-10T06:06:10;100113.88;;;-3.28;100.00
71109;BME280;59614;51.012;-1.648;2022-12-10T06:08:36;100120.81;;;-3.27;100.00
71109;BME280;59614;51.012;-1.648;2022-12-10T06:11:10;100122.66;;;-3.22;100.00
71109;BME280;59614;51.012;-1.648;2022-12-10T06:13:37;100126.88;;;-3.24;100.00
71109;BME280;59614;51.012;-1.648;2022-12-10T06:16:07;100126.56;;;-3.34;100.00
71109;BME280;59614;51.012;-1.648;2022-12-10T06:18:33;100128.44;;;-3.30;100.00
71109;BME280;59614;51.012;-1.648;2022-12-10T06:20:58;100123.31;;;-3.28;100.00
71109;BME280;59614;51.012;-1.648;2022-12-10T06:23:24;100126.16;;;-3.20;100.00
71109;BME280;59614;51.012;-1.648;2022-12-10T06:25:49;100132.47;;;-3.12;100.00
71109;BME280;59614;51.012;-1.648;2022-12-10T06:28:14;100129.88;;;-3.12;100.00
71109;BME280;59614;51.012;-1.648;2022-12-10T06:30:40;100127.66;;;-3.27;100.00
71109;BME280;59614;51.012;-1.648;2022-12-10T06:33:05;100121.63;;;-3.28;100.00
71109;BME280;59614;51.012;-1.648;2022-12-10T06:35:31;100121.63;;;-3.28;100.00
71109;BME280;59614;51.012;-1.648;2022-12-10T06:37:56;100126.88;;;-3.24;100.00
71109;BME280;59614;51.012;-1.648;2022-12-10T06:40:22;100125.13;;;-3.26;100.00
71109;BME280;59614;51.012;-1.648;2022-12-10T06:42:50;100135.56;;;-3.22;100.00
71109;BME280;59614;51.012;-1.648;2022-12-10T06:45:16;100141.66;;;-3.20;100.00
71109;BME280;59614;51.012;-1.648;2022-12-10T06:47:41;100134.63;;;-3.24;100.00
71109;BME280;59614;51.012;-1.648;2022-12-10T06:50:07;100139.59;;;-3.31;100.00
71109;BME280;59614;51.012;-1.648;2022-12-10T06:52:32;100140.59;;;-3.26;100.00
71109;BME280;59614;51.012;-1.648;2022-12-10T06:54:58;100134.69;;;-3.23;100.00
71109;BME280;59614;51.012;-1.648;2022-12-10T06:57:23;100134.56;;;-3.26;100.00
71109;BME280;59614;51.012;-1.648;2022-12-10T06:59:49;100134.78;;;-3.20;100.00
71109;BME280;59614;51.012;-1.648;2022-12-10T07:02:14;100129.53;;;-3.23;100.00
71109;BME280;59614;51.012;-1.648;2022-12-10T07:04:40;100139.19;;;-3.17;100.00
71109;BME280;59614;51.012;-1.648;2022-12-10T07:07:06;100128.03;;;-3.16;100.00
71109;BME280;59614;51.012;-1.648;2022-12-10T07:09:32;100136.91;;;-3.08;100.00
71109;BME280;59614;51.012;-1.648;2022-12-10T07:11:58;100128.88;;;-3.17;100.00
71109;BME280;59614;51.012;-1.648;2022-12-10T07:14:23;100137.94;;;-3.29;100.00
71109;BME280;59614;51.012;-1.648;2022-12-10T07:16:49;100135.13;;;-3.35;100.00
71109;BME280;59614;51.012;-1.648;2022-12-10T07:19:14;100139.41;;;-3.35;100.00
71109;BME280;59614;51.012;-1.648;2022-12-10T07:21:41;100141.19;;;-3.34;100.00
71109;BME280;59614;51.012;-1.648;2022-12-10T07:24:13;100138.69;;;-3.31;100.00
71109;BME280;59614;51.012;-1.648;2022-12-10T07:26:40;100142.28;;;-3.28;100.00
71109;BME280;59614;51.012;-1.648;2022-12-10T07:29:09;100146.66;;;-3.25;100.00
71109;BME280;59614;51.012;-1.648;2022-12-10T07:31:37;100146.44;;;-3.31;100.00
71109;BME280;59614;51.012;-1.648;2022-12-10T07:34:02;100154.41;;;-3.25;100.00
71109;BME280;59614;51.012;-1.648;2022-12-10T07:36:28;100145.69;;;-3.29;100.00
71109;BME280;59614;51.012;-1.648;2022-12-10T07:38:54;100143.91;;;-3.30;100.00
71109;BME280;59614;51.012;-1.648;2022-12-10T07:41:21;100146.22;;;-3.62;100.00
71109;BME280;59614;51.012;-1.648;2022-12-10T07:43:47;100148.66;;;-3.66;100.00
71109;BME280;59614;51.012;-1.648;2022-12-10T07:48:44;100158.38;;;-3.82;100.00
71109;BME280;59614;51.012;-1.648;2022-12-10T07:51:10;100162.22;;;-3.95;100.00
71109;BME280;59614;51.012;-1.648;2022-12-10T07:53:36;100155.31;;;-3.96;100.00
71109;BME280;59614;51.012;-1.648;2022-12-10T07:56:02;100154.06;;;-3.83;100.00
71109;BME280;59614;51.012;-1.648;2022-12-10T07:58:28;100149.59;;;-3.87;100.00
71109;BME280;59614;51.012;-1.648;2022-12-10T08:00:53;100151.25;;;-3.89;100.00
71109;BME280;59614;51.012;-1.648;2022-12-10T08:03:19;100154.22;;;-3.78;100.00
71109;BME280;59614;51.012;-1.648;2022-12-10T08:05:44;100150.28;;;-3.68;100.00
71109;BME280;59614;51.012;-1.648;2022-12-10T08:08:10;100157.22;;;-3.67;100.00
71109;BME280;59614;51.012;-1.648;2022-12-10T08:10:37;100161.47;;;-3.68;100.00
71109;BME280;59614;51.012;-1.648;2022-12-10T08:13:03;100160.03;;;-3.84;100.00
71109;BME280;59614;51.012;-1.648;2022-12-10T08:15:29;100157.75;;;-3.76;100.00
71109;BME280;59614;51.012;-1.648;2022-12-10T08:17:55;100167.94;;;-3.79;100.00
71109;BME280;59614;51.012;-1.648;2022-12-10T08:20:22;100161.53;;;-3.66;100.00
71109;BME280;59614;51.012;-1.648;2022-12-10T08:22:48;100161.47;;;-3.68;100.00
71109;BME280;59614;51.012;-1.648;2022-12-10T08:25:13;100161.34;;;-3.71;100.00
71109;BME280;59614;51.012;-1.648;2022-12-10T08:27:39;100159.63;;;-3.72;100.00
71109;BME280;59614;51.012;-1.648;2022-12-10T08:30:05;100165.69;;;-3.70;100.00
71109;BME280;59614;51.012;-1.648;2022-12-10T08:32:30;100166.75;;;-3.65;100.00
71109;BME280;59614;51.012;-1.648;2022-12-10T08:34:56;100165.00;;;-3.66;100.00
71109;BME280;59614;51.012;-1.648;2022-12-10T08:37:21;100164.66;;;-3.75;99.61
71109;BME280;59614;51.012;-1.648;2022-12-10T08:39:47;100170.75;;;-3.73;99.75
71109;BME280;59614;51.012;-1.648;2022-12-10T08:42:12;100171.88;;;-3.66;99.82
71109;BME280;59614;51.012;-1.648;2022-12-10T08:44:38;100165.97;;;-3.62;100.00
71109;BME280;59614;51.012;-1.648;2022-12-10T08:47:03;100167.09;;;-3.55;100.00
71109;BME280;59614;51.012;-1.648;2022-12-10T08:49:29;100170.22;;;-3.40;100.00
71109;BME280;59614;51.012;-1.648;2022-12-10T08:51:54;100171.16;;;-3.38;100.00
71109;BME280;59614;51.012;-1.648;2022-12-10T08:54:20;100173.56;;;-3.43;100.00
71109;BME280;59614;51.012;-1.648;2022-12-10T08:56:45;100182.50;;;-3.33;100.00
71109;BME280;59614;51.012;-1.648;2022-12-10T08:59:11;100181.38;;;-3.41;100.00
71109;BME280;59614;51.012;-1.648;2022-12-10T09:01:36;100178.06;;;-3.37;100.00
71109;BME280;59614;51.012;-1.648;2022-12-10T09:04:02;100177.91;;;-3.89;99.51
71109;BME280;59614;51.012;-1.648;2022-12-10T09:06:28;100181.28;;;-3.90;100.00
71109;BME280;59614;51.012;-1.648;2022-12-10T09:08:54;100171.56;;;-3.74;100.00
71109;BME280;59614;51.012;-1.648;2022-12-10T09:11:28;100169.25;;;-3.44;100.00
71109;BME280;59614;51.012;-1.648;2022-12-10T09:13:54;100167.63;;;-3.16;100.00
71109;BME280;59614;51.012;-1.648;2022-12-10T09:16:20;100177.47;;;-3.04;99.24
71109;BME280;59614;51.012;-1.648;2022-12-10T09:18:46;100173.50;;;-2.96;99.42
71109;BME280;59614;51.012;-1.648;2022-12-10T09:21:14;100181.03;;;-2.76;100.00
71109;BME280;59614;51.012;-1.648;2022-12-10T09:23:41;100174.38;;;-2.42;100.00
71109;BME280;59614;51.012;-1.648;2022-12-10T09:26:12;100167.69;;;-2.08;100.00
71109;BME280;59614;51.012;-1.648;2022-12-10T09:28:38;100164.41;;;-2.02;100.00
71109;BME280;59614;51.012;-1.648;2022-12-10T09:31:04;100159.72;;;-1.87;99.66
71109;BME280;59614;51.012;-1.648;2022-12-10T09:33:31;100171.03;;;-1.83;98.84
71109;BME280;59614;51.012;-1.648;2022-12-10T09:35:56;100165.44;;;-1.66;98.19
71109;BME280;59614;51.012;-1.648;2022-12-10T09:38:22;100169.31;;;-1.52;98.65
71109;BME280;59614;51.012;-1.648;2022-12-10T09:41:03;100165.41;;;-1.37;98.67
71109;BME280;59614;51.012;-1.648;2022-12-10T09:46:53;100164.91;;;-1.24;97.65
71109;BME280;59614;51.012;-1.648;2022-12-10T09:52:05;100171.88;;;-0.88;96.55
71109;BME280;59614;51.012;-1.648;2022-12-10T09:54:37;100172.59;;;-0.60;96.66
71109;BME280;59614;51.012;-1.648;2022-12-10T09:57:05;100170.13;;;-0.55;96.61
71109;BME280;59614;51.012;-1.648;2022-12-10T09:59:39;100169.81;;;-0.31;95.84
71109;BME280;59614;51.012;-1.648;2022-12-10T10:02:25;100170.31;;;-0.09;95.56
71109;BME280;59614;51.012;-1.648;2022-12-10T10:05:41;100168.84;;;0.02;94.69
71109;BME280;59614;51.012;-1.648;2022-12-10T10:07:48;100175.66;;;-0.03;95.26
71109;BME280;59614;51.012;-1.648;2022-12-10T10:13:19;100185.88;;;0.29;95.40
71109;BME280;59614;51.012;-1.648;2022-12-10T10:15:51;100179.09;;;0.36;95.43
71109;BME280;59614;51.012;-1.648;2022-12-10T10:18:26;100181.88;;;0.43;95.69
71109;BME280;59614;51.012;-1.648;2022-12-10T10:20:55;100181.03;;;0.44;95.26
71109;BME280;59614;51.012;-1.648;2022-12-10T10:23:21;100180.28;;;0.52;94.97
71109;BME280;59614;51.012;-1.648;2022-12-10T10:25:46;100166.56;;;0.59;95.05
71109;BME280;59614;51.012;-1.648;2022-12-10T10:28:19;100175.41;;;0.67;95.18
71109;BME280;59614;51.012;-1.648;2022-12-10T10:30:45;100168.56;;;0.72;94.33
71109;BME280;59614;51.012;-1.648;2022-12-10T10:33:13;100165.88;;;0.66;94.30
71109;BME280;59614;51.012;-1.648;2022-12-10T10:35:49;100170.66;;;0.92;93.47
71109;BME280;59614;51.012;-1.648;2022-12-10T10:38:23;100169.28;;;1.10;93.07
71109;BME280;59614;51.012;-1.648;2022-12-10T10:40:56;100175.63;;;1.27;92.96
71109;BME280;59614;51.012;-1.648;2022-12-10T10:43:32;100167.13;;;1.36;92.64
71109;BME280;59614;51.012;-1.648;2022-12-10T10:46:02;100174.03;;;1.35;91.71
71109;BME280;59614;51.012;-1.648;2022-12-10T10:48:30;100170.63;;;1.38;92.21
71109;BME280;59614;51.012;-1.648;2022-12-10T10:53:53;100163.19;;;1.60;91.84
71109;BME280;59614;51.012;-1.648;2022-12-10T10:58:54;100166.28;;;1.94;92.04
71109;BME280;59614;51.012;-1.648;2022-12-10T11:01:20;100164.28;;;1.74;90.78
71109;BME280;59614;51.012;-1.648;2022-12-10T11:03:59;100167.03;;;1.85;91.10
71109;BME280;59614;51.012;-1.648;2022-12-10T11:06:25;100165.28;;;1.84;91.21
71109;BME280;59614;51.012;-1.648;2022-12-10T11:08:55;100169.00;;;2.02;91.25
71109;BME280;59614;51.012;-1.648;2022-12-10T11:11:37;100169.88;;;2.00;90.24
71109;BME280;59614;51.012;-1.648;2022-12-10T11:14:14;100162.06;;;2.04;90.87
71109;BME280;59614;51.012;-1.648;2022-12-10T11:16:40;100158.91;;;2.26;91.00
71109;BME280;59614;51.012;-1.648;2022-12-10T11:19:18;100164.09;;;2.23;90.94
71109;BME280;59614;51.012;-1.648;2022-12-10T11:21:44;100166.81;;;2.34;90.82
71109;BME280;59614;51.012;-1.648;2022-12-10T11:24:11;100155.81;;;2.55;91.55
71109;BME280;59614;51.012;-1.648;2022-12-10T11:32:10;100144.97;;;2.97;90.32
71109;BME280;59614;51.012;-1.648;2022-12-10T11:40:35;100131.41;;;3.35;88.97
71109;BME280;59614;51.012;-1.648;2022-12-10T11:50:52;100133.19;;;3.42;89.37
71109;BME280;59614;51.012;-1.648;2022-12-10T11:56:31;100130.56;;;3.39;88.09
71109;BME280;59614;51.012;-1.648;2022-12-10T12:04:28;100136.03;;;3.70;88.03
71109;BME280;59614;51.012;-1.648;2022-12-10T12:09:33;100121.22;;;3.69;87.33
71109;BME280;59614;51.012;-1.648;2022-12-10T12:14:45;100111.69;;;3.73;86.98
71109;BME280;59614;51.012;-1.648;2022-12-10T12:17:18;100115.16;;;3.73;87.05
71109;BME280;59614;51.012;-1.648;2022-12-10T12:20:00;100118.69;;;3.84;87.59
71109;BME280;59614;51.012;-1.648;2022-12-10T12:22:30;100114.34;;;3.80;86.64
71109;BME280;59614;51.012;-1.648;2022-12-10T12:25:01;100110.06;;;3.92;87.07
71109;BME280;59614;51.012;-1.648;2022-12-10T12:27:35;100110.00;;;3.82;85.99
71109;BME280;59614;51.012;-1.648;2022-12-10T12:30:12;100111.81;;;3.96;85.94
71109;BME280;59614;51.012;-1.648;2022-12-10T12:33:08;100105.72;;;3.95;86.14
71109;BME280;59614;51.012;-1.648;2022-12-10T12:38:19;100101.25;;;3.79;84.42
71109;BME280;59614;51.012;-1.648;2022-12-10T12:43:32;100102.19;;;3.87;85.90
71109;BME280;59614;51.012;-1.648;2022-12-10T12:46:02;100096.94;;;3.79;85.64
71109;BME280;59614;51.012;-1.648;2022-12-10T12:50:59;100101.31;;;3.86;85.21
71109;BME280;59614;51.012;-1.648;2022-12-10T12:53:25;100103.97;;;3.93;85.76
71109;BME280;59614;51.012;-1.648;2022-12-10T13:01:42;100091.00;;;4.11;84.71
71109;BME280;59614;51.012;-1.648;2022-12-10T13:04:12;100097.94;;;4.06;84.69
71109;BME280;59614;51.012;-1.648;2022-12-10T13:06:39;100095.28;;;3.95;84.41
71109;BME280;59614;51.012;-1.648;2022-12-10T13:14:34;100084.03;;;4.12;86.20
71109;BME280;59614;51.012;-1.648;2022-12-10T13:17:02;100091.88;;;4.15;85.59
71109;BME280;59614;51.012;-1.648;2022-12-10T13:19:29;100083.00;;;3.79;85.89
71109;BME280;59614;51.012;-1.648;2022-12-10T13:22:04;100078.38;;;3.39;87.05
71109;BME280;59614;51.012;-1.648;2022-12-10T13:43:26;100085.19;;;3.15;87.32
71109;BME280;59614;51.012;-1.648;2022-12-10T13:46:34;100088.47;;;2.92;88.64
71109;BME280;59614;51.012;-1.648;2022-12-10T13:49:02;100085.84;;;2.94;89.03
71109;BME280;59614;51.012;-1.648;2022-12-10T13:52:01;100074.44;;;2.81;89.57
71109;BME280;59614;51.012;-1.648;2022-12-10T13:54:57;100075.19;;;2.71;89.53
71109;BME280;59614;51.012;-1.648;2022-12-10T14:00:14;100067.59;;;2.92;88.86
71109;BME280;59614;51.012;-1.648;2022-12-10T14:09:00;100068.69;;;3.18;88.24
71109;BME280;59614;51.012;-1.648;2022-12-10T14:11:34;100064.44;;;3.34;88.84
71109;BME280;59614;51.012;-1.648;2022-12-10T14:14:01;100069.72;;;3.43;88.72
71109;BME280;59614;51.012;-1.648;2022-12-10T14:16:30;100066.22;;;3.41;88.46
71109;BME280;59614;51.012;-1.648;2022-12-10T14:19:02;100064.47;;;3.40;88.57
71109;BME280;59614;51.012;-1.648;2022-12-10T14:21:34;100067.94;;;3.36;88.51
71109;BME280;59614;51.012;-1.648;2022-12-10T14:24:00;100067.91;;;3.33;88.42
71109;BME280;59614;51.012;-1.648;2022-12-10T14:26:33;100073.06;;;3.27;89.35
71109;BME280;59614;51.012;-1.648;2022-12-10T14:31:34;100077.41;;;3.20;89.05
71109;BME280;59614;51.012;-1.648;2022-12-10T14:34:03;100079.97;;;3.15;89.52
71109;BME280;59614;51.012;-1.648;2022-12-10T14:36:44;100086.81;;;3.04;89.59
71109;BME280;59614;51.012;-1.648;2022-12-10T14:39:23;100086.78;;;3.01;90.47
71109;BME280;59614;51.012;-1.648;2022-12-10T14:41:51;100084.97;;;2.93;90.60
71109;BME280;59614;51.012;-1.648;2022-12-10T14:44:18;100082.28;;;2.83;90.93
71109;BME280;59614;51.012;-1.648;2022-12-10T14:46:43;100081.28;;;2.70;90.81